createdAt,value
2023-01-07T00:05:51.196Z,86.36
2023-01-07T00:11:44.132Z,86.30
2023-01-07T00:17:36.626Z,86.11
2023-01-07T00:23:31.587Z,86.59
2023-01-07T00:29:23.843Z,85.94
2023-01-07T00:35:25.367Z,86.62
2023-01-07T00:41:17.658Z,86.95
2023-01-07T00:47:10.635Z,86.96
2023-01-07T00:53:03.383Z,87.38
2023-01-07T00:58:55.867Z,88.12
2023-01-07T01:04:48.904Z,88.58
2023-01-07T01:10:41.587Z,88.89
2023-01-07T01:16:33.861Z,89.14
2023-01-07T01:22:27.006Z,89.24
2023-01-07T01:28:19.312Z,88.61
2023-01-07T01:34:11.769Z,89.03
2023-01-07T01:40:06.992Z,87.95
2023-01-07T01:46:04.989Z,87.73
2023-01-07T01:52:04.417Z,87.93
2023-01-07T01:58:01.225Z,86.90
2023-01-07T02:03:54.026Z,86.27
2023-01-07T02:09:47.477Z,86.19
2023-01-07T02:16:17.766Z,86.21
2023-01-07T02:22:26.444Z,86.61
2023-01-07T02:28:55.915Z,86.90
2023-01-07T02:34:57.984Z,87.14
2023-01-07T02:41:10.481Z,87.44
2023-01-07T02:47:08.307Z,88.13
2023-01-07T02:53:00.669Z,88.45
2023-01-07T02:58:55.805Z,89.03
2023-01-07T03:05:04.829Z,88.25
2023-01-07T03:11:08.021Z,86.46
2023-01-07T03:17:05.113Z,86.12
2023-01-07T03:22:58.885Z,86.10
2023-01-07T03:28:53.463Z,86.12
2023-01-07T03:34:46.463Z,86.87
2023-01-07T03:40:39.769Z,87.70
2023-01-07T03:46:37.667Z,87.75
2023-01-07T03:52:30.825Z,87.23
2023-01-07T03:58:22.586Z,86.20
2023-01-07T04:04:17.376Z,86.03
2023-01-07T04:10:10.360Z,85.22
2023-01-07T04:16:03.305Z,85.34
2023-01-07T04:21:56.106Z,85.30
2023-01-07T04:27:48.185Z,85.56
2023-01-07T04:33:41.359Z,86.26
2023-01-07T04:39:34.231Z,86.46
2023-01-07T04:45:27.247Z,86.69
2023-01-07T04:51:20.645Z,86.81
2023-01-07T04:57:13.183Z,87.06
2023-01-07T05:03:05.997Z,87.47
2023-01-07T05:08:58.433Z,88.15
2023-01-07T05:14:51.415Z,88.10
2023-01-07T05:20:47.431Z,87.43
2023-01-07T05:26:40.160Z,86.78
2023-01-07T05:32:33.088Z,86.12
2023-01-07T05:38:26.170Z,85.18
2023-01-07T05:44:18.425Z,84.94
2023-01-07T05:50:10.350Z,85.28
2023-01-07T05:56:02.488Z,85.71
2023-01-07T06:01:55.512Z,86.36
2023-01-07T06:07:48.886Z,85.53
2023-01-07T06:13:41.386Z,85.72
2023-01-07T06:19:33.446Z,84.93
2023-01-07T06:25:25.516Z,84.63
2023-01-07T06:31:17.484Z,84.67
2023-01-07T06:37:09.798Z,85.54
2023-01-07T06:43:03.620Z,85.10
2023-01-07T06:48:57.713Z,85.09
2023-01-07T06:54:50.667Z,84.72
2023-01-07T07:00:43.165Z,84.47
2023-01-07T07:06:35.767Z,84.17
2023-01-07T07:12:28.571Z,83.64
2023-01-07T07:18:21.883Z,83.97
2023-01-07T07:24:15.066Z,82.80
2023-01-07T07:30:08.654Z,82.99
2023-01-07T07:36:01.727Z,82.13
2023-01-07T07:41:54.967Z,81.36
2023-01-07T07:47:47.608Z,80.30
2023-01-07T07:53:39.907Z,80.09
2023-01-07T07:59:32.633Z,80.36
2023-01-07T08:05:25.160Z,79.78
2023-01-07T08:11:18.397Z,78.94
2023-01-07T08:17:10.989Z,79.39
2023-01-07T08:23:05.915Z,78.62
2023-01-07T08:28:58.807Z,77.00
2023-01-07T08:34:50.985Z,75.88
2023-01-07T08:40:44.632Z,75.25
2023-01-07T08:46:38.090Z,75.94
2023-01-07T08:52:30.664Z,76.69
2023-01-07T08:58:23.138Z,76.88
2023-01-07T09:04:17.420Z,76.27
2023-01-07T09:10:13.775Z,76.61
2023-01-07T09:16:06.765Z,76.46
2023-01-07T09:21:59.309Z,74.08
2023-01-07T09:27:51.999Z,73.36
2023-01-07T09:33:43.734Z,72.73
2023-01-07T09:39:35.630Z,71.35
2023-01-07T09:45:41.120Z,70.75
2023-01-07T09:51:39.382Z,70.45
2023-01-07T09:57:32.030Z,70.32
2023-01-07T10:03:47.195Z,69.62
2023-01-07T10:10:18.209Z,70.54
2023-01-07T10:16:53.184Z,69.29
2023-01-07T10:22:51.853Z,68.52
2023-01-07T10:28:51.202Z,68.08
2023-01-07T10:34:54.130Z,66.31
2023-01-07T10:40:56.839Z,67.00
2023-01-07T10:47:17.717Z,67.43
2023-01-07T10:53:19.425Z,67.10
2023-01-07T10:59:21.208Z,66.08
2023-01-07T11:05:15.467Z,64.46
2023-01-07T11:11:15.773Z,63.95
2023-01-07T11:17:12.295Z,63.32
2023-01-07T11:23:37.296Z,62.67
2023-01-07T11:29:36.317Z,63.83
2023-01-07T11:35:30.128Z,65.44
2023-01-07T11:41:25.463Z,64.81
2023-01-07T11:47:19.867Z,64.37
2023-01-07T11:53:16.521Z,63.17
2023-01-07T11:59:17.219Z,63.19
2023-01-07T12:05:23.001Z,61.85
2023-01-07T12:11:15.696Z,60.78
2023-01-07T12:17:08.549Z,58.07
2023-01-07T12:23:20.366Z,58.58
2023-01-07T12:29:41.187Z,57.92
2023-01-07T12:35:43.455Z,57.64
2023-01-07T12:41:45.429Z,60.50
2023-01-07T12:47:42.612Z,61.38
2023-01-07T12:53:47.038Z,62.09
2023-01-07T12:59:45.836Z,62.84
2023-01-07T13:05:57.288Z,64.09
2023-01-07T13:12:40.582Z,64.65
2023-01-07T13:18:30.077Z,65.41
2023-01-07T13:24:54.959Z,65.38
2023-01-07T13:31:30.477Z,66.07
2023-01-07T13:37:46.561Z,65.64
2023-01-07T13:43:38.652Z,66.16
2023-01-07T13:49:33.768Z,66.22
2023-01-07T13:55:43.209Z,66.51
2023-01-07T14:02:16.177Z,66.52
2023-01-07T14:08:10.285Z,68.03
2023-01-07T14:14:21.748Z,68.89
2023-01-07T14:20:32.761Z,70.25
2023-01-07T14:26:50.829Z,71.93
2023-01-07T14:32:44.958Z,72.72
2023-01-07T14:38:37.827Z,72.94
2023-01-07T14:44:30.899Z,73.94
2023-01-07T14:50:34.842Z,74.65
2023-01-07T14:56:48.370Z,76.20
2023-01-07T15:03:02.507Z,77.14
2023-01-07T15:10:00.049Z,78.27
2023-01-07T15:16:01.494Z,79.44
2023-01-07T15:21:56.578Z,79.43
2023-01-07T15:27:59.499Z,81.38
2023-01-07T15:33:59.502Z,82.55
2023-01-07T15:39:58.242Z,83.35
2023-01-07T15:46:03.656Z,83.59
2023-01-07T15:51:59.123Z,84.31
2023-01-07T15:57:57.428Z,85.13
2023-01-07T16:03:53.947Z,84.60
2023-01-07T16:09:46.128Z,85.58
2023-01-07T16:15:41.458Z,85.84
2023-01-07T16:21:44.418Z,85.75
2023-01-07T16:27:38.619Z,85.90
2023-01-07T16:33:34.573Z,86.22
2023-01-07T16:39:39.019Z,85.89
2023-01-07T16:45:32.678Z,86.39
2023-01-07T16:51:50.539Z,85.94
2023-01-07T16:57:45.392Z,86.63
2023-01-07T17:03:54.725Z,86.53
2023-01-07T17:09:47.416Z,87.21
2023-01-07T17:15:40.633Z,86.51
2023-01-07T17:21:42.004Z,86.81
2023-01-07T17:27:40.268Z,88.37
2023-01-07T17:33:33.348Z,87.90
2023-01-07T17:39:26.550Z,87.91
2023-01-07T17:45:21.327Z,88.37
2023-01-07T17:51:14.395Z,88.31
2023-01-07T17:57:11.429Z,88.76
2023-01-07T18:03:04.798Z,88.60
2023-01-07T18:08:57.485Z,88.58
2023-01-07T18:14:50.559Z,88.65
2023-01-07T18:20:43.006Z,88.26
2023-01-07T18:26:35.326Z,87.98
2023-01-07T18:32:28.979Z,88.82
2023-01-07T18:38:22.276Z,88.14
2023-01-07T18:44:14.615Z,88.24
2023-01-07T18:50:08.729Z,87.94
2023-01-07T18:56:02.409Z,87.78
2023-01-07T19:01:58.271Z,88.30
2023-01-07T19:07:50.521Z,88.55
2023-01-07T19:13:43.503Z,88.15
2023-01-07T19:19:47.321Z,88.25
2023-01-07T19:25:40.597Z,88.04
2023-01-07T19:31:34.350Z,88.68
2023-01-07T19:37:26.426Z,88.76
2023-01-07T19:43:19.134Z,89.25
2023-01-07T19:49:14.837Z,89.13
2023-01-07T19:55:07.853Z,89.19
2023-01-07T20:01:15.860Z,89.18
2023-01-07T20:07:09.755Z,89.14
2023-01-07T20:13:03.581Z,89.59
2023-01-07T20:18:56.295Z,89.45
2023-01-07T20:24:48.638Z,89.31
2023-01-07T20:30:40.655Z,89.37
2023-01-07T20:36:33.255Z,90.17
2023-01-07T20:42:27.074Z,90.76
2023-01-07T20:48:25.363Z,90.80
2023-01-07T20:54:18.271Z,90.45
2023-01-07T21:00:11.741Z,90.98
2023-01-07T21:06:03.867Z,90.61
2023-01-07T21:11:56.870Z,91.14
2023-01-07T21:17:50.123Z,91.20
2023-01-07T21:23:43.269Z,91.91
2023-01-07T21:29:35.775Z,91.50
2023-01-07T21:35:27.796Z,92.01
2023-01-07T21:41:20.291Z,91.65
2023-01-07T21:47:12.935Z,91.80
2023-01-07T21:53:05.947Z,91.40
2023-01-07T21:59:00.134Z,91.75
2023-01-07T22:04:53.874Z,91.25
2023-01-07T22:10:49.051Z,91.61
2023-01-07T22:16:42.569Z,90.84
2023-01-07T22:22:34.698Z,90.63
2023-01-07T22:28:27.214Z,91.20
2023-01-07T22:34:21.652Z,91.16
2023-01-07T22:40:15.217Z,91.09
2023-01-07T22:46:15.994Z,90.77
2023-01-07T22:52:08.179Z,90.42
2023-01-07T22:58:01.526Z,91.05
2023-01-07T23:03:54.294Z,91.82
2023-01-07T23:09:46.758Z,91.55
2023-01-07T23:15:39.718Z,91.31
2023-01-07T23:21:33.292Z,91.45
2023-01-07T23:27:26.016Z,91.23
2023-01-07T23:33:18.200Z,91.61
2023-01-07T23:39:13.432Z,92.01
2023-01-07T23:45:07.476Z,91.98
2023-01-07T23:51:12.177Z,92.01
2023-01-07T23:57:04.378Z,91.69
